Jard de Lafayette, Puerto Rico
Current Conditions -  °F | °C
As of 5:56 AM on Wednesday 22 Oct 2014 (Local Time) from TJSJ Reporting Station
Scattered Clouds Scattered Clouds  
Wind Chill: 78°   Ceiling: Unl
Heat Index: 81°   Visibility: 10mi
Dew Point: 73°   Wind: 3mph
Humidity: 84%   Direction: 150°SSE
Pressure: 29.95"   Gusts: NA
Location:  17.9678°N, 66.0617°W
Report Text: TJSJ 220956Z 15003KT 10SM FEW032 SCT080 26/23 A2995 RMK AO2 SLP141 T02560228
Loading
Personal Weather Stations






























Interactive Weather Map
Tropical Storm Tracking
New forecast layout! Learn more

10-Day Weather Forecast

Advertisements
Track Severe Weather on mobile